Terminal Aerodrome Forecast
Issued by NWS

Home | Current Version | Previous Version | Text Only | Print | Product List | Glossary On
Versions: 1 2 3 4 5 6 7 8 9 10 11 12 13
000
FTUS44 KBMX 202300
TAFMGM
TAF
KMGM 202324Z 2100/2124 30006KT P6SM SCT030 SCT250
     FM210100 00000KT P6SM SCT250
     FM210900 00000KT 3SM BR SKC
     FM211400 08005KT P6SM BKN250=

USA.gov is the U.S. government's official web portal to all federal, state and local government web resources and services.